This is the latest recevied weather packets stored in our database for station/object WB6ANP. If no packets are shown the sender has not sent any weather packets the latest 10 day(s).
| Time | Temp. | Humidity | Pressure | Rain* | Wind** | Luminosity | Snow |
|---|---|---|---|---|---|---|---|
| 1777328174 | 34.44° C | 32% | 1007.7 hPa | 0 mm | - | 446 W/m² | - |
| 1777327872 | 34.44° C | 33% | 1007.9 hPa | 0 mm | - | 463 W/m² | - |
| 1777327569 | 34.44° C | 31% | 1007.7 hPa | 0 mm | - | 482 W/m² | - |
| 1777327266 | 34.44° C | 32% | 1007.9 hPa | 0 mm | - | 501 W/m² | - |
| 1777326963 | 33.89° C | 31% | 1007.7 hPa | 0 mm | - | 515 W/m² | - |
| 1777326661 | 34.44° C | 34% | 1007.6 hPa | 0 mm | - | 537 W/m² | - |
| 1777326357 | 34.44° C | 32% | 1008 hPa | 0 mm | - | 545 W/m² | - |
| 1777326055 | 35° C | 31% | 1007.7 hPa | 0 mm | - | 566 W/m² | - |
| 1777325753 | 34.44° C | 30% | 1007.9 hPa | 0 mm | - | 575 W/m² | - |
| 1777325451 | 33.89° C | 33% | 1007.9 hPa | 0 mm | - | 596 W/m² | - |
| 1777325148 | 34.44° C | 32% | 1007.7 hPa | 0 mm | - | 609 W/m² | - |
| 1777324844 | 34.44° C | 32% | 1008.1 hPa | 0 mm | - | 630 W/m² | - |
| 1777324543 | 33.89° C | 30% | 1008 hPa | 0 mm | - | 642 W/m² | - |
| 1777324239 | 33.89° C | 33% | 1008.1 hPa | 0 mm | - | 658 W/m² | - |
| 1777323938 | 33.89° C | 33% | 1008.1 hPa | 0 mm | - | 669 W/m² | - |
| 1777323634 | 33.89° C | 33% | 1007.9 hPa | 0 mm | - | 682 W/m² | - |
| 1777323331 | 33.89° C | 34% | 1008.3 hPa | 0 mm | - | 693 W/m² | - |
| 1777323030 | 34.44° C | 30% | 1008.1 hPa | 0 mm | - | 698 W/m² | - |
| 1777322727 | 33.89° C | 32% | 1008.4 hPa | 0 mm | - | 715 W/m² | - |
| 1777322425 | 33.33° C | 31% | 1008.4 hPa | 0 mm | - | 722 W/m² | - |
| 1777322121 | 33.89° C | 31% | 1008.5 hPa | 0 mm | - | 732 W/m² | - |
| 1777321818 | 33.33° C | 33% | 1008.4 hPa | 0 mm | - | 742 W/m² | - |
| 1777321515 | 33.89° C | 32% | 1008.3 hPa | 0 mm | - | 751 W/m² | - |
| 1777321212 | 32.78° C | 35% | 1008.5 hPa | 0 mm | - | 763 W/m² | - |
| 1777320910 | 32.78° C | 32% | 1008.5 hPa | 0 mm | - | 773 W/m² | - |
* Rain latest hour (hover to see other rain measurements)
** Current wind speed in m/s (hover to see current wind gust speed)